Pretty Hana — DSQJ5 — position and weather

sailwx.info

Track history (hours):
 
Tides and Currents Weather Stations Pressure Air Temp Water Temp Dewpoint Dewpoint Depression Visibility Wind Speed Wind Dir Waves Ship Positions

Pretty Hana

Last reported at 2016-May-09 17:30 UTC. Time now 2016-May-31 10:00 UTC.
Position N 35°09' E 139°44'.
Warning: this ship's position is 21 days out of date.

Length 65 m; draft 4.4 m.

Type: Ship (hazmat cat B). MMSI: 441600000.

Date/timePositionNaut miles runAvg speedWind from/ knotsBaromVisibWave heightAir tempDewpointWater temp
2016-May-09 17:30N 35°09' E 139°44'9 9.2
2016-May-09 16:34N 35°17' E 139°45'8 8.4
2016-May-09 15:33N 35°26' E 139°45'1010.3
2016-May-09 14:33N 35°33' E 139°54'3 3.2
2016-May-09 13:33N 35°36' E 139°57'5 4.8
2016-May-09 12:33N 35°40' E 139°57'0 0.4
2016-May-09 11:28N 35°40' E 139°56'0 0.0
2016-May-09 10:16N 35°40' E 139°56'0 0.0
2016-May-09 09:28N 35°40' E 139°56'0 0.0
2016-May-09 08:28N 35°40' E 139°56'0 0.0
2016-May-09 07:28N 35°40' E 139°56'0 0.0
2016-May-09 06:28N 35°40' E 139°56'0 0.0
2016-May-09 05:22N 35°40' E 139°56'0 0.0
2016-May-09 04:28N 35°40' E 139°56'0 0.0
2016-May-09 03:28N 35°40' E 139°56'0 0.0
2016-May-09 02:28N 35°40' E 139°56'0 0.0
2016-May-09 01:28N 35°40' E 139°56'0 0.0
2016-May-09 00:28N 35°40' E 139°56'0 0.4
2016-May-08 23:33N 35°40' E 139°57'5 2.4
2016-May-08 21:16N 35°35' E 139°58'0 0.0
2016-May-08 20:28N 35°35' E 139°58'0 0.0
2016-May-08 19:28N 35°35' E 139°58'0 0.1
2016-May-08 18:28N 35°35' E 139°58'0 0.0
2016-May-08 17:22N 35°35' E 139°58'0 0.0
2016-May-08 16:28N 35°35' E 139°58'0 0.0
2016-May-08 15:28N 35°35' E 139°58'0 0.0
2016-May-08 14:28N 35°35' E 139°58'0 0.0
2016-May-08 12:28N 35°35' E 139°58'0 0.1
2016-May-08 11:31N 35°35' E 139°58'4 3.8
2016-May-08 10:33N 35°32' E 139°57'8 3.8
2016-May-08 08:25N 35°36' E 140°05'0 0.0
2016-May-08 07:31N 35°36' E 140°05'0 0.0
2016-May-08 06:33N 35°36' E 140°05'9 8.8
2016-May-08 05:33N 35°31' E 139°56'1110.6
2016-May-08 04:34N 35°24' E 139°47'11 9.7
2016-May-08 03:22N 35°13' E 139°47'8 9.5
2016-May-08 02:34N 35°06' E 139°43'231 4.9
2016-May-06 03:13N 34°26' E 135°06'710.1
2016-May-06 02:33N 34°30' E 135°12'1010.0
2016-May-06 01:33N 34°37' E 135°21'4 3.3
2016-May-06 00:25N 34°39' E 135°25'0 0.0
2016-May-05 23:31N 34°39' E 135°25'1 1.0
2016-May-05 22:33N 34°39' E 135°24'2 1.9
2016-May-05 21:16N 34°37' E 135°22'0 0.0
2016-May-05 20:22N 34°37' E 135°22'0 0.0
2016-May-05 19:28N 34°37' E 135°22'0 0.0
2016-May-05 18:28N 34°37' E 135°22'0 0.0
2016-May-05 17:33N 34°37' E 135°22'0 0.0
2016-May-05 16:33N 34°37' E 135°22'0 0.0
2016-May-05 15:33N 34°37' E 135°22'4 3.7
2016-May-05 14:32N 34°36' E 135°18'9 9.0
2016-May-05 13:33N 34°35' E 135°07'  
2016-May-01 01:17N 35°04' E 120°06'17 8.9
2016-Apr-30 23:20N 35°04' E 119°45'  
Track history (hours):
 
Tides and Currents Weather Stations Pressure Air Temp Water Temp Dewpoint Dewpoint Depression Visibility Wind Speed Wind Dir Waves Ship Positions

Pretty Hana

Last reported at 2016-May-09 17:30 UTC. Time now 2016-May-31 10:00 UTC.
Position N 35°09' E 139°44'.
Warning: this ship's position is 21 days out of date.

Length 65 m; draft 4.4 m.

Type: Ship (hazmat cat B). MMSI: 441600000.

Date/timePositionNaut miles runAvg speedWind from/ knotsBaromVisibWave heightAir tempDewpointWater temp
2016-May-09 17:30N 35°09' E 139°44'9 9.2
2016-May-09 16:34N 35°17' E 139°45'8 8.4
2016-May-09 15:33N 35°26' E 139°45'1010.3
2016-May-09 14:33N 35°33' E 139°54'3 3.2
2016-May-09 13:33N 35°36' E 139°57'5 4.8
2016-May-09 12:33N 35°40' E 139°57'0 0.4
2016-May-09 11:28N 35°40' E 139°56'0 0.0
2016-May-09 10:16N 35°40' E 139°56'0 0.0
2016-May-09 09:28N 35°40' E 139°56'0 0.0
2016-May-09 08:28N 35°40' E 139°56'0 0.0
2016-May-09 07:28N 35°40' E 139°56'0 0.0
2016-May-09 06:28N 35°40' E 139°56'0 0.0
2016-May-09 05:22N 35°40' E 139°56'0 0.0
2016-May-09 04:28N 35°40' E 139°56'0 0.0
2016-May-09 03:28N 35°40' E 139°56'0 0.0
2016-May-09 02:28N 35°40' E 139°56'0 0.0
2016-May-09 01:28N 35°40' E 139°56'0 0.0
2016-May-09 00:28N 35°40' E 139°56'0 0.4
2016-May-08 23:33N 35°40' E 139°57'5 2.4
2016-May-08 21:16N 35°35' E 139°58'0 0.0
2016-May-08 20:28N 35°35' E 139°58'0 0.0
2016-May-08 19:28N 35°35' E 139°58'0 0.1
2016-May-08 18:28N 35°35' E 139°58'0 0.0
2016-May-08 17:22N 35°35' E 139°58'0 0.0
2016-May-08 16:28N 35°35' E 139°58'0 0.0
2016-May-08 15:28N 35°35' E 139°58'0 0.0
2016-May-08 14:28N 35°35' E 139°58'0 0.0
2016-May-08 12:28N 35°35' E 139°58'0 0.1
2016-May-08 11:31N 35°35' E 139°58'4 3.8
2016-May-08 10:33N 35°32' E 139°57'8 3.8
2016-May-08 08:25N 35°36' E 140°05'0 0.0
2016-May-08 07:31N 35°36' E 140°05'0 0.0
2016-May-08 06:33N 35°36' E 140°05'9 8.8
2016-May-08 05:33N 35°31' E 139°56'1110.6
2016-May-08 04:34N 35°24' E 139°47'11 9.7
2016-May-08 03:22N 35°13' E 139°47'8 9.5
2016-May-08 02:34N 35°06' E 139°43'231 4.9
2016-May-06 03:13N 34°26' E 135°06'710.1
2016-May-06 02:33N 34°30' E 135°12'1010.0
2016-May-06 01:33N 34°37' E 135°21'4 3.3
2016-May-06 00:25N 34°39' E 135°25'0 0.0
2016-May-05 23:31N 34°39' E 135°25'1 1.0
2016-May-05 22:33N 34°39' E 135°24'2 1.9
2016-May-05 21:16N 34°37' E 135°22'0 0.0
2016-May-05 20:22N 34°37' E 135°22'0 0.0
2016-May-05 19:28N 34°37' E 135°22'0 0.0
2016-May-05 18:28N 34°37' E 135°22'0 0.0
2016-May-05 17:33N 34°37' E 135°22'0 0.0
2016-May-05 16:33N 34°37' E 135°22'0 0.0
2016-May-05 15:33N 34°37' E 135°22'4 3.7
2016-May-05 14:32N 34°36' E 135°18'9 9.0
2016-May-05 13:33N 34°35' E 135°07'  
2016-May-01 01:17N 35°04' E 120°06'17 8.9
2016-Apr-30 23:20N 35°04' E 119°45'  

Dump ship's entire track history